Wetterdaten: Woche 15.04.02 - 21.04.02 (KW16)
Datum Zeit Temperatur Luftfeuchte Luftdruck Regenmenge Wind Richtung Taupunkt Windchill
15.04.2002 00:00 3.3 C 95 % 1012.8 hPa 0.0 l/m 1.1 km/h (1 Bft) SO 2.6 C 3.1 C
15.04.2002 01:00 1.9 C 98 % 1012.8 hPa 0.0 l/m 0.0 km/h (0 Bft) N 1.6 C 1.9 C
15.04.2002 02:00 1.3 C 100 % 1012.8 hPa 0.0 l/m 0.1 km/h (0 Bft) N 1.3 C 1.3 C
15.04.2002 03:00 0.9 C 100 % 1012.8 hPa 0.0 l/m 2.0 km/h (1 Bft) O-SO 0.9 C 0.6 C
15.04.2002 04:00 0.6 C 100 % 1012.8 hPa 0.0 l/m 0.0 km/h (0 Bft) N 0.6 C 0.6 C
15.04.2002 05:00 0.5 C 100 % 1012.8 hPa 0.0 l/m 0.3 km/h (0 Bft) O-SO 0.5 C 0.5 C
15.04.2002 06:00 -0.2 C 100 % 1013.0 hPa 0.0 l/m 0.8 km/h (0 Bft) O -0.2 C -0.3 C
15.04.2002 07:00 -0.1 C 100 % 1013.9 hPa 0.0 l/m 0.9 km/h (0 Bft) O-SO -0.1 C -0.3 C
15.04.2002 08:00 1.9 C 100 % 1013.9 hPa 0.0 l/m 0.0 km/h (0 Bft) N 1.9 C 1.9 C
15.04.2002 09:00 3.2 C 95 % 1013.9 hPa 0.0 l/m 0.5 km/h (0 Bft) O-SO 2.4 C 3.2 C
15.04.2002 10:00 5.3 C 79 % 1013.9 hPa 0.0 l/m 0.2 km/h (0 Bft) O-SO 1.9 C 5.3 C
15.04.2002 11:00 6.0 C 70 % 1013.9 hPa 0.0 l/m 7.8 km/h (2 Bft) NW 0.9 C 4.6 C
15.04.2002 12:00 6.7 C 69 % 1013.9 hPa 0.0 l/m 9.4 km/h (2 Bft) SO 1.5 C 5.0 C
15.04.2002 13:00 8.5 C 55 % 1013.0 hPa 0.0 l/m 7.8 km/h (2 Bft) W 0.0 C 7.3 C
15.04.2002 14:00 9.8 C 52 % 1012.8 hPa 0.0 l/m 8.3 km/h (2 Bft) W 0.4 C 9.1 C
15.04.2002 15:00 9.7 C 56 % 1012.8 hPa 0.0 l/m 10.6 km/h (2 Bft) SW 1.4 C 8.6 C
15.04.2002 16:00 11.5 C 50 % 1012.8 hPa 0.0 l/m 7.8 km/h (2 Bft) S 1.3 C 11.5 C
15.04.2002 17:00 9.2 C 55 % 1012.8 hPa 0.0 l/m 13.8 km/h (3 Bft) NW 0.5 C 7.4 C
15.04.2002 18:00 8.4 C 59 % 1012.8 hPa 0.0 l/m 3.7 km/h (1 Bft) W-NW 0.8 C 8.0 C
15.04.2002 19:00 7.5 C 65 % 1012.8 hPa 0.0 l/m 5.6 km/h (1 Bft) NW 1.3 C 6.6 C
15.04.2002 20:00 5.2 C 75 % 1013.4 hPa 0.0 l/m 1.7 km/h (1 Bft) NW 1.1 C 5.0 C
15.04.2002 21:00 3.4 C 85 % 1014.1 hPa 0.0 l/m 0.9 km/h (0 Bft) O-SO 1.1 C 3.4 C
15.04.2002 22:00 2.4 C 90 % 1014.4 hPa 0.0 l/m 1.0 km/h (0 Bft) O-SO 1.0 C 2.3 C
15.04.2002 23:00 1.6 C 95 % 1014.9 hPa 0.0 l/m 2.6 km/h (1 Bft) O-SO 0.8 C 1.1 C
16.04.2002 00:00 0.6 C 97 % 1014.9 hPa 0.0 l/m 2.1 km/h (1 Bft) O-SO 0.2 C 0.4 C
16.04.2002 01:00 -0.2 C 99 % 1014.9 hPa 0.0 l/m 1.3 km/h (1 Bft) O-SO -0.3 C -0.2 C
16.04.2002 02:00 -0.8 C 100 % 1014.9 hPa 0.0 l/m 2.0 km/h (1 Bft) O-SO -0.8 C -1.3 C
16.04.2002 03:00 -1.2 C 100 % 1014.9 hPa 0.0 l/m 0.3 km/h (0 Bft) O-SO -1.2 C -1.2 C
16.04.2002 04:00 -1.5 C 100 % 1014.9 hPa 0.0 l/m 0.5 km/h (0 Bft) O-SO -1.5 C -1.5 C
16.04.2002 05:00 -1.8 C 100 % 1014.9 hPa 0.0 l/m 0.3 km/h (0 Bft) O-SO -1.8 C -1.8 C
16.04.2002 06:00 -0.9 C 100 % 1014.9 hPa 0.0 l/m 0.1 km/h (0 Bft) SO -0.9 C -0.9 C
16.04.2002 07:00 -0.6 C 100 % 1014.9 hPa 0.3 l/m 0.1 km/h (0 Bft) O-SO -0.6 C -0.6 C
16.04.2002 08:00 0.1 C 100 % 1014.9 hPa 0.0 l/m 1.0 km/h (0 Bft) SO 0.1 C 0.1 C
16.04.2002 09:00 2.0 C 98 % 1014.9 hPa 0.0 l/m 1.9 km/h (1 Bft) SO 1.6 C 1.6 C
16.04.2002 10:00 5.2 C 80 % 1014.9 hPa 0.0 l/m 1.0 km/h (0 Bft) O-SO 2.0 C 5.0 C
16.04.2002 11:00 8.0 C 58 % 1014.9 hPa 0.0 l/m 17.3 km/h (3 Bft) NW 0.1 C 5.4 C
16.04.2002 12:00 9.1 C 54 % 1014.2 hPa 0.0 l/m 13.5 km/h (3 Bft) W-NW 0.2 C 7.0 C
16.04.2002 13:00 8.7 C 58 % 1014.5 hPa 0.0 l/m 23.2 km/h (4 Bft) NW 0.9 C 5.6 C
16.04.2002 14:00 8.9 C 60 % 1014.9 hPa 0.0 l/m 24.4 km/h (4 Bft) NW 1.5 C 5.6 C
16.04.2002 15:00 9.3 C 63 % 1014.7 hPa 0.0 l/m 16.3 km/h (3 Bft) NW 2.7 C 7.7 C
16.04.2002 16:00 10.0 C 57 % 1013.9 hPa 0.0 l/m 26.7 km/h (4 Bft) NW 1.8 C 7.9 C
16.04.2002 17:00 10.2 C 56 % 1013.9 hPa 0.0 l/m 22.3 km/h (4 Bft) NW 1.7 C 9.0 C
16.04.2002 18:00 8.0 C 68 % 1014.4 hPa 0.0 l/m 25.1 km/h (4 Bft) NW 2.3 C 4.6 C
16.04.2002 19:00 7.2 C 72 % 1014.9 hPa 0.0 l/m 12.7 km/h (3 Bft) NW 2.6 C 5.1 C
16.04.2002 20:00 6.4 C 77 % 1014.9 hPa 0.0 l/m 10.2 km/h (2 Bft) NW 2.6 C 4.4 C
16.04.2002 21:00 6.1 C 78 % 1015.7 hPa 0.0 l/m 13.8 km/h (3 Bft) NW 2.6 C 3.5 C
16.04.2002 22:00 5.9 C 80 % 1015.9 hPa 0.0 l/m 16.6 km/h (3 Bft) NW 2.6 C 2.7 C
16.04.2002 23:00 5.6 C 82 % 1015.9 hPa 0.0 l/m 9.7 km/h (2 Bft) NW 2.8 C 3.7 C
17.04.2002 00:00 5.5 C 82 % 1015.9 hPa 0.0 l/m 1.5 km/h (1 Bft) W-NW 2.7 C 5.3 C
17.04.2002 01:00 5.5 C 81 % 1015.9 hPa 0.0 l/m 4.0 km/h (1 Bft) NW 2.5 C 4.7 C
17.04.2002 02:00 5.4 C 81 % 1015.9 hPa 0.0 l/m 2.7 km/h (1 Bft) NW 2.4 C 4.8 C
17.04.2002 03:00 5.3 C 83 % 1015.9 hPa 0.0 l/m 1.0 km/h (0 Bft) W 2.6 C 5.2 C
17.04.2002 04:00 5.3 C 83 % 1015.9 hPa 0.0 l/m 0.9 km/h (0 Bft) W-NW 2.7 C 5.2 C
17.04.2002 05:00 5.4 C 82 % 1015.9 hPa 0.0 l/m 4.2 km/h (1 Bft) W-NW 2.7 C 4.7 C
17.04.2002 06:00 5.4 C 82 % 1015.9 hPa 0.0 l/m 1.3 km/h (1 Bft) W-NW 2.6 C 5.3 C
17.04.2002 07:00 5.5 C 82 % 1015.9 hPa 0.0 l/m 7.0 km/h (2 Bft) NW 2.7 C 4.1 C
17.04.2002 08:00 5.9 C 81 % 1015.9 hPa 0.0 l/m 3.0 km/h (1 Bft) NW 2.9 C 5.4 C
17.04.2002 09:00 6.6 C 78 % 1015.9 hPa 0.0 l/m 3.0 km/h (1 Bft) NW 3.0 C 6.1 C
17.04.2002 10:00 7.5 C 73 % 1015.9 hPa 0.0 l/m 10.9 km/h (2 Bft) W-NW 3.1 C 5.6 C
17.04.2002 11:00 8.3 C 70 % 1015.9 hPa 0.0 l/m 12.1 km/h (2 Bft) NW 3.1 C 6.3 C
17.04.2002 12:00 9.6 C 65 % 1016.3 hPa 0.0 l/m 10.7 km/h (2 Bft) W-NW 3.3 C 8.3 C
17.04.2002 13:00 9.3 C 67 % 1015.9 hPa 0.0 l/m 6.0 km/h (2 Bft) NW 3.4 C 8.5 C
17.04.2002 14:00 10.0 C 63 % 1015.9 hPa 0.0 l/m 4.6 km/h (1 Bft) NW 3.3 C 9.6 C
17.04.2002 15:00 11.4 C 55 % 1015.9 hPa 0.0 l/m 4.4 km/h (1 Bft) W-NW 2.8 C 11.4 C
17.04.2002 16:00 10.9 C 57 % 1015.9 hPa 0.0 l/m 5.5 km/h (1 Bft) NW 2.8 C 10.9 C
17.04.2002 17:00 11.7 C 54 % 1015.9 hPa 0.0 l/m 4.9 km/h (1 Bft) NW 2.6 C 11.7 C
17.04.2002 18:00 12.0 C 53 % 1015.7 hPa 0.0 l/m 3.6 km/h (1 Bft) NW 2.7 C 12.0 C
17.04.2002 19:00 10.6 C 64 % 1015.9 hPa 0.0 l/m 1.7 km/h (1 Bft) NW 4.1 C 10.6 C
17.04.2002 20:00 8.5 C 71 % 1016.1 hPa 0.0 l/m 1.8 km/h (1 Bft) NW 3.6 C 8.3 C
17.04.2002 21:00 6.3 C 80 % 1017.0 hPa 0.0 l/m 1.6 km/h (1 Bft) O-SO 3.2 C 6.1 C
17.04.2002 22:00 4.9 C 88 % 1017.0 hPa 0.0 l/m 0.8 km/h (0 Bft) O-SO 3.0 C 4.8 C
17.04.2002 23:00 3.6 C 93 % 1017.0 hPa 0.0 l/m 0.9 km/h (0 Bft) O 2.6 C 3.6 C
18.04.2002 00:00 3.4 C 97 % 1017.0 hPa 0.0 l/m 0.0 km/h (0 Bft) N 2.9 C 3.4 C
18.04.2002 01:00 2.8 C 97 % 1017.0 hPa 0.0 l/m 0.4 km/h (0 Bft) O-SO 2.4 C 2.8 C
18.04.2002 02:00 2.0 C 99 % 1017.0 hPa 0.0 l/m 1.3 km/h (1 Bft) O-SO 1.8 C 1.8 C
18.04.2002 03:00 1.3 C 100 % 1017.0 hPa 0.0 l/m 0.3 km/h (0 Bft) O-SO 1.3 C 1.3 C
18.04.2002 04:00 1.4 C 100 % 1017.0 hPa 0.0 l/m 2.0 km/h (1 Bft) O-SO 1.4 C 1.1 C
18.04.2002 05:00 0.6 C 100 % 1017.0 hPa 0.0 l/m 1.1 km/h (0 Bft) SO 0.6 C 0.4 C
18.04.2002 06:00 0.7 C 100 % 1017.0 hPa 0.0 l/m 0.6 km/h (0 Bft) O-SO 0.7 C 0.7 C
18.04.2002 07:00 1.4 C 100 % 1017.6 hPa 0.0 l/m 0.2 km/h (0 Bft) O-SO 1.4 C 1.4 C
18.04.2002 08:00 3.3 C 99 % 1018.0 hPa 0.0 l/m 0.0 km/h (0 Bft) N 3.1 C 3.3 C
18.04.2002 09:00 5.3 C 88 % 1018.0 hPa 0.0 l/m 0.0 km/h (0 Bft) N 3.5 C 5.3 C
18.04.2002 10:00 8.0 C 78 % 1018.0 hPa 0.0 l/m 0.8 km/h (0 Bft) SO 4.4 C 8.0 C
18.04.2002 11:00 11.2 C 63 % 1018.0 hPa 0.0 l/m 4.2 km/h (1 Bft) O-SO 4.5 C 11.2 C
18.04.2002 12:00 13.5 C 52 % 1017.0 hPa 0.0 l/m 3.7 km/h (1 Bft) SO 3.9 C 13.5 C
18.04.2002 13:00 14.8 C 42 % 1017.0 hPa 0.0 l/m 5.3 km/h (1 Bft) W 2.1 C 14.8 C
18.04.2002 14:00 16.7 C 31 % 1016.3 hPa 0.0 l/m 5.9 km/h (2 Bft) NW -0.7 C 16.7 C
18.04.2002 15:00 17.5 C 30 % 1015.9 hPa 0.0 l/m 10.3 km/h (2 Bft) W-NW -0.4 C 17.5 C
18.04.2002 16:00 17.2 C 29 % 1015.9 hPa 0.0 l/m 12.6 km/h (3 Bft) NW -1.2 C 17.2 C
18.04.2002 17:00 17.1 C 33 % 1015.9 hPa 0.0 l/m 12.3 km/h (3 Bft) NW 0.6 C 17.1 C
18.04.2002 18:00 15.4 C 33 % 1015.9 hPa 0.0 l/m 5.9 km/h (2 Bft) W-NW -1.1 C 15.4 C
18.04.2002 19:00 15.0 C 39 % 1015.9 hPa 0.0 l/m 5.3 km/h (1 Bft) W-NW 1.1 C 15.0 C
18.04.2002 20:00 11.7 C 50 % 1016.7 hPa 0.0 l/m 1.7 km/h (1 Bft) O-SO 1.6 C 11.7 C
18.04.2002 21:00 10.1 C 58 % 1017.2 hPa 0.0 l/m 2.0 km/h (1 Bft) O-SO 2.2 C 9.9 C
18.04.2002 22:00 10.7 C 60 % 1018.0 hPa 0.0 l/m 1.5 km/h (1 Bft) W-NW 3.2 C 10.7 C
18.04.2002 23:00 10.7 C 63 % 1018.6 hPa 0.0 l/m 0.7 km/h (0 Bft) W-SW 4.0 C 10.7 C
19.04.2002 00:00 10.1 C 67 % 1019.0 hPa 0.0 l/m 10.4 km/h (2 Bft) NW 4.3 C 9.5 C
19.04.2002 01:00 9.3 C 74 % 1019.0 hPa 0.0 l/m 1.8 km/h (1 Bft) NW 4.9 C 9.2 C
19.04.2002 02:00 8.6 C 77 % 1019.0 hPa 0.0 l/m 0.1 km/h (0 Bft) N 4.9 C 8.6 C
19.04.2002 03:00 8.1 C 83 % 1019.0 hPa 0.0 l/m 0.6 km/h (0 Bft) W 5.3 C 8.0 C
19.04.2002 04:00 8.3 C 82 % 1019.0 hPa 0.0 l/m 0.7 km/h (0 Bft) W-NW 5.3 C 8.2 C
19.04.2002 05:00 7.7 C 84 % 1019.0 hPa 0.0 l/m 0.8 km/h (0 Bft) W-NW 5.2 C 7.6 C
19.04.2002 06:00 6.2 C 90 % 1019.4 hPa 0.0 l/m 0.4 km/h (0 Bft) W-NW 4.6 C 6.1 C
19.04.2002 07:00 5.6 C 93 % 1020.0 hPa 0.0 l/m 0.9 km/h (0 Bft) SO 4.6 C 5.6 C
19.04.2002 08:00 6.9 C 87 % 1020.1 hPa 0.0 l/m 0.0 km/h (0 Bft) N 4.9 C 6.9 C
19.04.2002 09:00 9.6 C 68 % 1020.1 hPa 0.0 l/m 1.1 km/h (0 Bft) O-NO 3.9 C 9.5 C
19.04.2002 10:00 11.1 C 53 % 1020.1 hPa 0.0 l/m 7.4 km/h (2 Bft) W-NW 1.9 C 11.1 C
19.04.2002 11:00 12.7 C 42 % 1020.1 hPa 0.0 l/m 8.3 km/h (2 Bft) W-NW 0.1 C 12.7 C
19.04.2002 12:00 13.9 C 35 % 1019.9 hPa 0.0 l/m 9.9 km/h (2 Bft) W-NW -1.2 C 13.9 C
19.04.2002 13:00 14.4 C 34 % 1019.0 hPa 0.0 l/m 12.7 km/h (3 Bft) NW -1.4 C 14.4 C
19.04.2002 14:00 14.1 C 32 % 1019.0 hPa 0.0 l/m 11.2 km/h (2 Bft) NW -2.3 C 14.1 C
19.04.2002 15:00 14.3 C 37 % 1019.0 hPa 0.0 l/m 25.8 km/h (4 Bft) NW -0.3 C 14.3 C
19.04.2002 16:00 13.8 C 44 % 1019.1 hPa 0.0 l/m 33.4 km/h (5 Bft) NW 1.6 C 13.8 C
19.04.2002 17:00 12.2 C 47 % 1020.1 hPa 0.0 l/m 36.3 km/h (5 Bft) NW 1.2 C 12.2 C
19.04.2002 18:00 10.3 C 57 % 1021.0 hPa 0.0 l/m 19.8 km/h (3 Bft) NW 2.0 C 9.5 C
19.04.2002 19:00 9.7 C 63 % 1021.1 hPa 0.0 l/m 12.8 km/h (3 Bft) NW 3.1 C 8.6 C
19.04.2002 20:00 7.6 C 76 % 1022.0 hPa 0.0 l/m 4.9 km/h (1 Bft) NW 3.7 C 6.9 C
19.04.2002 21:00 5.9 C 84 % 1022.7 hPa 0.0 l/m 2.0 km/h (1 Bft) O-SO 3.5 C 5.8 C
19.04.2002 22:00 5.0 C 91 % 1023.2 hPa 0.0 l/m 4.2 km/h (1 Bft) O-SO 3.6 C 4.2 C
19.04.2002 23:00 4.7 C 92 % 1023.2 hPa 0.0 l/m 2.0 km/h (1 Bft) O-SO 3.5 C 4.6 C
20.04.2002 00:00 3.3 C 97 % 1023.2 hPa 0.0 l/m 0.8 km/h (0 Bft) O-SO 2.9 C 3.3 C
20.04.2002 01:00 2.4 C 100 % 1023.9 hPa 0.0 l/m 1.5 km/h (1 Bft) O-SO 2.3 C 2.1 C
20.04.2002 02:00 2.3 C 100 % 1023.3 hPa 0.0 l/m 0.0 km/h (0 Bft) N 2.3 C 2.3 C
20.04.2002 03:00 3.5 C 99 % 1023.9 hPa 0.0 l/m 0.0 km/h (0 Bft) N 3.4 C 3.5 C
20.04.2002 04:00 2.8 C 97 % 1024.2 hPa 0.0 l/m 0.8 km/h (0 Bft) O-SO 2.3 C 2.7 C
20.04.2002 05:00 1.9 C 100 % 1024.2 hPa 0.0 l/m 1.4 km/h (1 Bft) O-SO 1.8 C 1.6 C
20.04.2002 06:00 1.6 C 100 % 1024.3 hPa 0.0 l/m 0.4 km/h (0 Bft) O-SO 1.6 C 1.6 C
20.04.2002 07:00 2.6 C 99 % 1025.3 hPa 0.0 l/m 0.0 km/h (0 Bft) N 2.5 C 2.6 C
20.04.2002 08:00 4.5 C 88 % 1025.3 hPa 0.0 l/m 0.2 km/h (0 Bft) N 2.6 C 4.5 C
20.04.2002 09:00 6.7 C 75 % 1025.7 hPa 0.0 l/m 0.5 km/h (0 Bft) W 2.5 C 6.7 C
20.04.2002 10:00 7.9 C 71 % 1026.3 hPa 0.0 l/m 0.2 km/h (0 Bft) W 3.0 C 7.9 C
20.04.2002 11:00 9.4 C 64 % 1026.3 hPa 0.0 l/m 1.4 km/h (1 Bft) O-SO 2.8 C 9.4 C
20.04.2002 12:00 10.3 C 58 % 1026.3 hPa 0.0 l/m 7.9 km/h (2 Bft) NW 2.3 C 9.4 C
20.04.2002 13:00 5.8 C 90 % 1027.0 hPa 1.5 l/m 3.1 km/h (1 Bft) N-NW 4.2 C 5.3 C
20.04.2002 14:00 9.2 C 78 % 1026.3 hPa 0.0 l/m 0.9 km/h (0 Bft) NW 5.4 C 9.2 C
20.04.2002 15:00 11.0 C 67 % 1026.3 hPa 0.0 l/m 6.1 km/h (2 Bft) SO 5.0 C 10.8 C
20.04.2002 16:00 12.0 C 56 % 1026.3 hPa 0.0 l/m 3.5 km/h (1 Bft) N-NW 3.5 C 11.8 C
20.04.2002 17:00 7.3 C 87 % 1027.2 hPa 2.7 l/m 2.2 km/h (1 Bft) N 5.3 C 7.0 C
20.04.2002 18:00 7.9 C 90 % 1027.3 hPa 0.0 l/m 0.2 km/h (0 Bft) W-NW 6.4 C 7.9 C
20.04.2002 19:00 7.2 C 93 % 1028.2 hPa 0.3 l/m 0.3 km/h (0 Bft) N 6.1 C 7.2 C
20.04.2002 20:00 6.6 C 98 % 1028.4 hPa 0.3 l/m 0.2 km/h (0 Bft) O-SO 6.3 C 6.6 C
20.04.2002 21:00 6.4 C 100 % 1029.2 hPa 0.0 l/m 1.0 km/h (0 Bft) O-SO 6.4 C 6.3 C
20.04.2002 22:00 6.2 C 100 % 1029.4 hPa 0.0 l/m 0.0 km/h (0 Bft) N 6.2 C 6.2 C
20.04.2002 23:00 6.2 C 100 % 1030.4 hPa 0.0 l/m 0.4 km/h (0 Bft) O-SO 6.2 C 6.2 C
21.04.2002 00:00 6.5 C 100 % 1030.4 hPa 0.0 l/m 0.0 km/h (0 Bft) N 6.5 C 6.5 C
21.04.2002 01:00 6.4 C 100 % 1030.4 hPa 0.0 l/m 0.0 km/h (0 Bft) N 6.4 C 6.4 C
21.04.2002 02:00 5.9 C 100 % 1030.4 hPa 0.0 l/m 0.5 km/h (0 Bft) O-SO 5.9 C 5.8 C
21.04.2002 03:00 4.7 C 100 % 1030.4 hPa 0.0 l/m 0.0 km/h (0 Bft) N 4.7 C 4.7 C
21.04.2002 04:00 4.4 C 100 % 1030.4 hPa 0.0 l/m 0.9 km/h (0 Bft) O-SO 4.4 C 4.3 C
21.04.2002 05:00 5.3 C 100 % 1030.4 hPa 0.0 l/m 0.0 km/h (0 Bft) N 5.3 C 5.3 C
21.04.2002 06:00 5.7 C 97 % 1030.4 hPa 0.0 l/m 0.0 km/h (0 Bft) N 5.3 C 5.7 C
21.04.2002 07:00 6.4 C 93 % 1030.7 hPa 0.0 l/m 0.0 km/h (0 Bft) N 5.3 C 6.4 C
21.04.2002 08:00 7.6 C 88 % 1031.2 hPa 0.0 l/m 0.4 km/h (0 Bft) N-NO 5.7 C 7.6 C
21.04.2002 09:00 8.3 C 83 % 1031.5 hPa 0.0 l/m 3.1 km/h (1 Bft) O 5.6 C 7.9 C
21.04.2002 10:00 8.6 C 84 % 1031.5 hPa 0.0 l/m 5.1 km/h (1 Bft) O-SO 6.0 C 7.8 C
21.04.2002 11:00 9.3 C 81 % 1031.3 hPa 0.0 l/m 3.7 km/h (1 Bft) O-SO 6.2 C 8.9 C
21.04.2002 12:00 10.0 C 79 % 1031.5 hPa 0.0 l/m 7.4 km/h (2 Bft) O-SO 6.6 C 9.2 C
21.04.2002 13:00 11.3 C 71 % 1031.4 hPa 0.0 l/m 4.0 km/h (1 Bft) O-NO 6.3 C 11.3 C
21.04.2002 14:00 12.7 C 66 % 1030.4 hPa 0.0 l/m 5.4 km/h (1 Bft) NO 6.5 C 12.7 C
21.04.2002 15:00 12.9 C 64 % 1030.4 hPa 0.0 l/m 7.7 km/h (2 Bft) NO 6.2 C 12.9 C
21.04.2002 16:00 13.6 C 62 % 1030.4 hPa 0.0 l/m 3.0 km/h (1 Bft) O 6.5 C 13.6 C
21.04.2002 17:00 14.0 C 61 % 1030.3 hPa 0.0 l/m 3.5 km/h (1 Bft) O-NO 6.5 C 14.0 C
21.04.2002 18:00 13.6 C 61 % 1030.4 hPa 0.0 l/m 4.0 km/h (1 Bft) O-NO 6.2 C 13.6 C
21.04.2002 19:00 12.8 C 65 % 1030.4 hPa 0.0 l/m 0.5 km/h (0 Bft) N-NO 6.3 C 12.8 C
21.04.2002 20:00 12.1 C 69 % 1030.4 hPa 0.0 l/m 3.2 km/h (1 Bft) O-SO 6.5 C 12.1 C
21.04.2002 21:00 11.7 C 72 % 1030.9 hPa 0.0 l/m 0.1 km/h (0 Bft) N 6.7 C 11.7 C
21.04.2002 22:00 11.7 C 71 % 1030.6 hPa 0.0 l/m 0.0 km/h (0 Bft) N 6.7 C 11.7 C
21.04.2002 23:00 11.1 C 73 % 1030.4 hPa 0.0 l/m 0.0 km/h (0 Bft) N 6.6 C 11.1 C
Min-Datum _ 16.04.02 18.04.02 15.04.02 - 15.04.02 - 18.04.02 16.04.02
_ Min-Zeit 04:56 16:10 00:01 - 00:07 - 16:30 02:44
Minimum _ -2.1 C 25 % 1012.8 hPa - 0.0 km/h (0 Bft) - -3.8 C -3.1 C
Max-Datum _ 18.04.02 15.04.02 21.04.02 20.04.02 19.04.02 - 20.04.02 18.04.02
_ Max-Zeit 15:37 02:04 09:00 17:06 15:56 - 14:09 15:37
Maximum _ 18.2 C 100 % 1031.5 hPa 2.7 l/m 47.2 km/h
NW (6 Bft)
- 7.4 C 18.2 C
Durchschnitt _ 7.2 C 77 % 1019.8 hPa #5.1 l/m 4.8 km/h (1 Bft) NW 2.8 C 6.8 C

Durchschnitt Minimum Temp.6.3 C
Durchschnitt Maximum Temp.8.1 C
© Kaiko 2002